Greenville, Virginia
Current Conditions -  °F | °C
As of 11:55 AM on Thursday 23 Oct 2014 (Local Time) from KW13 Reporting Station
Scattered Clouds Scattered Clouds  
Wind Chill: 58°   Ceiling: Unl
Heat Index: 58°   Visibility: 10mi
Dew Point: 41°   Wind: 9mph
Humidity: 54%   Direction: 330°NNW
Pressure: 30"   Gusts: 18mph
Location:  38°N, 79.16°W
Report Text: KW13 231555Z AUTO 33008G16KT 10SM SCT039 15/05 A3000 RMK AO1 T01450052
Loading
Personal Weather Stations






























Interactive Weather Map
Tropical Storm Tracking
New forecast layout! Learn more

10-Day Weather Forecast

Advertisements
Track Severe Weather on mobile